Time,TemperatureF,DewpointF,PressureIn,WindDirection,WindDirectionDegrees,WindSpeedMPH,WindSpeedGustMPH,Humidity,HourlyPrecipIn,Conditions,Clouds,dailyrainin,SoftwareType,DateUTC
2013-12-13 00:00:00,13.0,8.0,30.19,South,188,0.0,3.0,88,0.00,,,-99.99,,2013-12-13 05:00:00,
2013-12-13 00:43:00,13.0,8.0,30.19,South,188,0.0,3.0,88,0.00,,,-99.99,,2013-12-13 05:43:00,
2013-12-13 00:53:00,13.0,8.0,30.19,South,188,0.0,3.0,88,0.00,,,-99.99,,2013-12-13 05:53:00,
2013-12-13 02:00:00,13.0,8.0,30.16,SSW,211,0.0,4.0,89,0.00,,,-99.99,,2013-12-13 07:00:00,
2013-12-13 02:42:00,13.0,8.0,30.16,SSW,211,0.0,4.0,89,0.00,,,-99.99,,2013-12-13 07:42:00,
2013-12-13 02:52:00,13.0,8.0,30.16,SSW,211,0.0,4.0,89,0.00,,,-99.99,,2013-12-13 07:52:00,
2013-12-13 03:00:00,13.0,9.0,30.16,SW,221,2.0,3.0,90,0.00,,,-99.99,,2013-12-13 08:00:00,
2013-12-13 03:42:00,13.0,9.0,30.16,SW,221,2.0,3.0,90,0.00,,,-99.99,,2013-12-13 08:42:00,
2013-12-13 03:52:00,13.0,9.0,30.16,SW,221,2.0,3.0,90,0.00,,,-99.99,,2013-12-13 08:52:00,
2013-12-13 04:00:00,13.0,8.0,30.16,South,186,0.0,3.0,90,0.00,,,-99.99,,2013-12-13 09:00:00,
2013-12-13 04:43:00,13.0,8.0,30.16,South,186,0.0,3.0,90,0.00,,,-99.99,,2013-12-13 09:43:00,
2013-12-13 04:54:00,13.0,8.0,30.16,South,186,0.0,3.0,90,0.00,,,-99.99,,2013-12-13 09:54:00,
2013-12-13 05:00:00,14.0,10.0,30.16,NE,37,0.0,0.0,91,0.00,,,-99.99,,2013-12-13 10:00:00,
2013-12-13 05:43:00,14.0,10.0,30.16,NE,37,0.0,0.0,91,0.00,,,-99.99,,2013-12-13 10:43:00,
2013-12-13 05:53:00,14.0,10.0,30.16,NE,37,0.0,0.0,91,0.00,,,-99.99,,2013-12-13 10:53:00,
2013-12-13 06:00:00,14.0,10.0,30.17,South,185,0.0,0.0,90,0.00,,,-99.99,,2013-12-13 11:00:00,
2013-12-13 06:43:00,14.0,10.0,30.17,South,185,0.0,0.0,90,0.00,,,-99.99,,2013-12-13 11:43:00,
2013-12-13 06:53:00,14.0,10.0,30.17,South,185,0.0,0.0,90,0.00,,,-99.99,,2013-12-13 11:53:00,
2013-12-13 07:00:00,17.0,12.0,30.18,SSW,206,0.0,0.0,90,0.00,,,-99.99,,2013-12-13 12:00:00,
2013-12-13 07:42:00,17.0,12.0,30.18,SSW,206,0.0,0.0,90,0.00,,,-99.99,,2013-12-13 12:42:00,
2013-12-13 07:53:00,17.0,12.0,30.18,SSW,206,0.0,0.0,90,0.00,,,-99.99,,2013-12-13 12:53:00,
2013-12-13 08:00:00,20.0,16.0,30.19,SW,216,0.0,0.0,89,0.00,,,-99.99,,2013-12-13 13:00:00,
2013-12-13 08:42:00,20.0,16.0,30.19,SW,216,0.0,0.0,89,0.00,,,-99.99,,2013-12-13 13:42:00,
2013-12-13 08:52:00,20.0,16.0,30.19,SW,216,0.0,0.0,89,0.00,,,-99.99,,2013-12-13 13:52:00,
2013-12-13 09:00:00,26.0,15.0,30.21,West,264,3.0,6.0,66,0.00,,,-99.99,,2013-12-13 14:00:00,
2013-12-13 09:43:00,26.0,15.0,30.21,West,264,3.0,6.0,66,0.00,,,-99.99,,2013-12-13 14:43:00,
2013-12-13 09:53:00,26.0,15.0,30.21,West,264,3.0,6.0,66,0.00,,,-99.99,,2013-12-13 14:53:00,
2013-12-13 10:00:00,33.0,15.0,30.22,WSW,253,5.0,13.0,48,0.00,,,-99.99,,2013-12-13 15:00:00,
2013-12-13 10:44:00,33.0,15.0,30.22,WSW,253,5.0,13.0,48,0.00,,,-99.99,,2013-12-13 15:44:00,
2013-12-13 10:54:00,33.0,15.0,30.22,WSW,253,5.0,13.0,48,0.00,,,-99.99,,2013-12-13 15:54:00,
2013-12-13 11:00:00,35.0,13.0,30.21,WSW,256,6.0,17.0,40,0.00,,,-99.99,,2013-12-13 16:00:00,
2013-12-13 11:43:00,35.0,13.0,30.21,WSW,256,6.0,17.0,40,0.00,,,-99.99,,2013-12-13 16:43:00,
2013-12-13 11:53:00,35.0,13.0,30.21,WSW,256,6.0,17.0,40,0.00,,,-99.99,,2013-12-13 16:53:00,
2013-12-13 12:00:00,36.0,13.0,30.18,WSW,246,5.0,16.0,38,0.00,,,-99.99,,2013-12-13 17:00:00,
2013-12-13 12:43:00,36.0,13.0,30.18,WSW,246,5.0,16.0,38,0.00,,,-99.99,,2013-12-13 17:43:00,
2013-12-13 12:52:00,36.0,13.0,30.18,WSW,246,5.0,16.0,38,0.00,,,-99.99,,2013-12-13 17:52:00,
2013-12-13 13:00:00,37.0,13.0,30.16,WNW,289,6.0,18.0,37,0.00,,,-99.99,,2013-12-13 18:00:00,
2013-12-13 13:42:00,37.0,13.0,30.16,WNW,289,6.0,18.0,37,0.00,,,-99.99,,2013-12-13 18:42:00,
2013-12-13 13:52:00,37.0,13.0,30.16,WNW,289,6.0,18.0,37,0.00,,,-99.99,,2013-12-13 18:52:00,
2013-12-13 14:00:00,37.0,12.0,30.17,NNW,344,5.0,20.0,34,0.00,,,-99.99,,2013-12-13 19:00:00,
2013-12-13 14:42:00,37.0,12.0,30.17,NNW,344,5.0,20.0,34,0.00,,,-99.99,,2013-12-13 19:42:00,
2013-12-13 14:52:00,37.0,12.0,30.17,NNW,344,5.0,20.0,34,0.00,,,-99.99,,2013-12-13 19:52:00,
2013-12-13 15:00:00,38.0,13.0,30.17,WNW,301,0.0,17.0,35,0.00,,,-99.99,,2013-12-13 20:00:00,
2013-12-13 15:42:00,38.0,13.0,30.17,WNW,301,0.0,17.0,35,0.00,,,-99.99,,2013-12-13 20:42:00,
2013-12-13 15:53:00,38.0,13.0,30.17,WNW,301,0.0,17.0,35,0.00,,,-99.99,,2013-12-13 20:53:00,
2013-12-13 16:00:00,36.0,13.0,30.19,WSW,248,5.0,11.0,39,0.00,,,-99.99,,2013-12-13 21:00:00,
2013-12-13 16:43:00,36.0,13.0,30.19,WSW,248,5.0,11.0,39,0.00,,,-99.99,,2013-12-13 21:43:00,
2013-12-13 16:53:00,36.0,13.0,30.19,WSW,248,5.0,11.0,39,0.00,,,-99.99,,2013-12-13 21:53:00,
2013-12-13 17:00:00,28.0,20.0,30.21,WSW,243,0.0,7.0,71,0.00,,,-99.99,,2013-12-13 22:00:00,
2013-12-13 17:42:00,28.0,20.0,30.21,WSW,243,0.0,7.0,71,0.00,,,-99.99,,2013-12-13 22:42:00,
2013-12-13 17:53:00,28.0,20.0,30.21,WSW,243,0.0,7.0,71,0.00,,,-99.99,,2013-12-13 22:53:00,
2013-12-13 18:00:00,27.0,20.0,30.23,SW,227,0.0,0.0,78,0.00,,,-99.99,,2013-12-13 23:00:00,
2013-12-13 18:43:00,27.0,20.0,30.23,SW,227,0.0,0.0,78,0.00,,,-99.99,,2013-12-13 23:43:00,
2013-12-13 18:53:00,27.0,20.0,30.23,SW,227,0.0,0.0,78,0.00,,,-99.99,,2013-12-13 23:53:00,
2013-12-13 19:00:00,26.0,20.0,30.26,SW,214,0.0,0.0,81,0.00,,,-99.99,,2013-12-14 00:00:00,
2013-12-13 19:42:00,26.0,20.0,30.26,SW,214,0.0,0.0,81,0.00,,,-99.99,,2013-12-14 00:42:00,
2013-12-13 19:52:00,26.0,20.0,30.26,SW,214,0.0,0.0,81,0.00,,,-99.99,,2013-12-14 00:52:00,
2013-12-13 20:00:00,24.0,19.0,30.27,ESE,117,0.0,0.0,84,0.00,,,-99.99,,2013-12-14 01:00:00,
2013-12-13 20:42:00,24.0,19.0,30.27,ESE,117,0.0,0.0,84,0.00,,,-99.99,,2013-12-14 01:42:00,
2013-12-13 20:52:00,24.0,19.0,30.27,ESE,117,0.0,0.0,84,0.00,,,-99.99,,2013-12-14 01:52:00,
2013-12-13 21:00:00,23.0,19.0,30.27,SSW,199,0.0,0.0,88,0.00,,,-99.99,,2013-12-14 02:00:00,
2013-12-13 21:42:00,23.0,19.0,30.27,SSW,199,0.0,0.0,88,0.00,,,-99.99,,2013-12-14 02:42:00,
2013-12-13 21:52:00,23.0,19.0,30.27,SSW,199,0.0,0.0,88,0.00,,,-99.99,,2013-12-14 02:52:00,
2013-12-13 22:00:00,22.0,18.0,30.28,SE,126,0.0,0.0,90,0.00,,,-99.99,,2013-12-14 03:00:00,
2013-12-13 22:44:00,22.0,18.0,30.28,SE,126,0.0,0.0,90,0.00,,,-99.99,,2013-12-14 03:44:00,
2013-12-13 22:54:00,22.0,18.0,30.28,SE,126,0.0,0.0,90,0.00,,,-99.99,,2013-12-14 03:54:00,
2013-12-13 23:00:00,22.0,17.0,30.31,SSW,210,0.0,0.0,88,0.00,,,-99.99,,2013-12-14 04:00:00,
2013-12-13 23:43:00,22.0,17.0,30.31,SSW,210,0.0,0.0,88,0.00,,,-99.99,,2013-12-14 04:43:00,
2013-12-13 23:53:00,22.0,17.0,30.31,SSW,210,0.0,0.0,88,0.00,,,-99.99,,2013-12-14 04:53:00,